Time;durP1;ratioP1;P1;durP2;ratioP2;P2;SDS_P1;SDS_P2;PMS_P1;PMS_P2;Temp;Humidity;BMP_temperature;BMP_pressure;BME280_temperature;BME280_humidity;BME280_pressure;Samples;Min_cycle;Max_cycle;Signal;HPM_P1;HPM_P2
2023/01/27 00:00:17;;;;;;;13.93;6.83;;;5.50;99.90;;;;;;4879959;29;20188;-77
2023/01/27 00:02:43;;;;;;;16.10;7.30;;;5.50;99.90;;;;;;4878730;29;20267;-80
2023/01/27 00:05:11;;;;;;;22.43;7.90;;;5.50;99.90;;;;;;4881536;29;20934;-82
2023/01/27 00:07:37;;;;;;;14.33;7.57;;;5.50;99.90;;;;;;4880763;29;20476;-81
2023/01/27 00:10:04;;;;;;;9.93;6.57;;;5.50;99.90;;;;;;4882210;29;20544;-81
2023/01/27 00:15:15;;;;;;;17.33;7.43;;;5.50;99.90;;;;;;4882355;29;20523;-81
2023/01/27 00:17:41;;;;;;;12.83;6.43;;;5.50;99.90;;;;;;4882116;29;20441;-81
2023/01/27 00:20:07;;;;;;;15.87;7.23;;;5.50;99.90;;;;;;4882128;29;20484;-81
2023/01/27 00:25:17;;;;;;;14.73;8.10;;;5.60;99.90;;;;;;4882118;29;20436;-79
2023/01/27 00:27:43;;;;;;;12.13;7.30;;;5.60;99.90;;;;;;4882128;29;20449;-81
2023/01/27 00:30:10;;;;;;;12.00;6.70;;;5.70;99.90;;;;;;4882107;29;20213;-79
2023/01/27 00:35:19;;;;;;;14.57;8.03;;;5.70;99.90;;;;;;4881858;29;20428;-77
2023/01/27 00:37:46;;;;;;;12.70;6.80;;;5.70;99.90;;;;;;4881300;29;20532;-78
2023/01/27 00:40:14;;;;;;;12.47;6.90;;;5.70;99.90;;;;;;4881182;29;20199;-77
2023/01/27 00:42:39;;;;;;;14.07;6.23;;;5.70;99.90;;;;;;4880437;29;20487;-77
2023/01/27 00:47:50;;;;;;;15.57;7.27;;;5.70;99.90;;;;;;4881758;29;20192;-76
2023/01/27 00:50:16;;;;;;;8.80;6.57;;;5.70;99.90;;;;;;4881318;29;20565;-77
2023/01/27 00:52:43;;;;;;;10.70;7.10;;;5.60;99.90;;;;;;4881160;29;20189;-78
2023/01/27 00:55:11;;;;;;;14.77;7.07;;;5.60;99.90;;;;;;4881647;29;20429;-78
2023/01/27 00:57:37;;;;;;;16.00;8.47;;;5.60;99.90;;;;;;4881540;29;20488;-79
2023/01/27 01:00:08;;;;;;;11.97;7.47;;;5.60;99.90;;;;;;4881520;29;20472;-79
2023/01/27 01:02:33;;;;;;;16.17;8.87;;;5.60;99.90;;;;;;4881423;29;20189;-80
2023/01/27 01:04:59;;;;;;;24.77;10.53;;;5.70;99.90;;;;;;4881411;29;20426;-78
2023/01/27 01:07:25;;;;;;;24.03;13.27;;;5.70;99.90;;;;;;4880879;29;20189;-78
2023/01/27 01:09:50;;;;;;;23.30;11.00;;;5.70;99.90;;;;;;4879417;29;20212;-78
2023/01/27 01:12:16;;;;;;;18.30;10.93;;;5.60;99.90;;;;;;4880577;29;20578;-78
2023/01/27 01:14:41;;;;;;;20.73;9.40;;;5.60;99.90;;;;;;4880817;29;20181;-78
2023/01/27 01:17:07;;;;;;;18.43;9.10;;;5.60;99.90;;;;;;4881174;29;20523;-78
2023/01/27 01:19:32;;;;;;;28.57;11.00;;;5.60;99.90;;;;;;4880875;29;20661;-78
2023/01/27 01:21:58;;;;;;;17.40;9.50;;;5.60;99.90;;;;;;4879347;29;20669;-77
2023/01/27 01:24:24;;;;;;;15.90;8.67;;;5.50;99.90;;;;;;4880428;29;20193;-78
2023/01/27 01:26:50;;;;;;;13.10;8.90;;;5.50;99.90;;;;;;4879773;29;20687;-78
2023/01/27 01:29:15;;;;;;;15.70;8.30;;;5.50;99.90;;;;;;4880991;29;20446;-78
2023/01/27 01:31:41;;;;;;;13.93;9.20;;;5.50;99.90;;;;;;4876585;29;20268;-78
2023/01/27 01:34:08;;;;;;;16.53;10.33;;;5.50;99.90;;;;;;4880624;29;20189;-78
2023/01/27 01:36:33;;;;;;;15.17;9.47;;;5.50;99.90;;;;;;4880416;29;20196;-78
2023/01/27 01:38:59;;;;;;;20.50;10.00;;;5.50;99.90;;;;;;4880070;29;20441;-78
2023/01/27 01:41:25;;;;;;;17.80;10.23;;;5.50;99.90;;;;;;4880483;29;20232;-79
2023/01/27 01:43:51;;;;;;;14.83;9.03;;;5.50;99.90;;;;;;4879796;29;20280;-85
2023/01/27 01:46:18;;;;;;;17.70;9.23;;;5.40;99.90;;;;;;4880828;29;20450;-85
2023/01/27 01:48:59;;;;;;;17.37;11.30;;;5.50;99.90;;;;;;4880438;29;20437;-80
2023/01/27 01:51:33;;;;;;;22.37;10.57;;;5.50;99.90;;;;;;4879286;29;20541;-79
2023/01/27 01:54:09;;;;;;;18.90;11.60;;;5.40;99.90;;;;;;4879833;29;20527;-80
2023/01/27 01:56:45;;;;;;;22.00;10.80;;;5.40;99.90;;;;;;4876926;29;20473;-80
2023/01/27 01:59:17;;;;;;;23.90;11.30;;;5.40;99.90;;;;;;4880386;29;20438;-82
2023/01/27 02:01:43;;;;;;;22.40;12.70;;;5.40;99.90;;;;;;4861547;29;20430;-82
2023/01/27 02:04:16;;;;;;;20.27;11.57;;;5.40;99.90;;;;;;4880207;29;20452;-82
2023/01/27 02:07:06;;;;;;;24.90;11.20;;;5.30;99.90;;;;;;4879981;29;20193;-80
2023/01/27 02:09:31;;;;;;;24.53;12.37;;;5.30;99.90;;;;;;4879734;29;20464;-80
2023/01/27 02:11:57;;;;;;;23.87;12.00;;;5.30;99.90;;;;;;4880234;29;20449;-80
2023/01/27 02:14:24;;;;;;;21.90;11.20;;;5.30;99.90;;;;;;4879723;29;20552;-76
2023/01/27 02:16:49;;;;;;;25.70;13.20;;;5.40;99.90;;;;;;4879422;29;20449;-80
2023/01/27 02:19:26;;;;;;;24.97;14.17;;;5.40;99.90;;;;;;4879213;29;20531;-79
2023/01/27 02:21:55;;;;;;;23.63;11.80;;;5.50;99.90;;;;;;4879562;29;20659;-79
2023/01/27 02:24:29;;;;;;;23.33;11.43;;;5.40;99.90;;;;;;4879838;29;20918;-78
2023/01/27 02:26:55;;;;;;;21.87;11.10;;;5.40;99.90;;;;;;4879768;29;20464;-81
2023/01/27 02:29:21;;;;;;;27.57;13.70;;;5.40;99.90;;;;;;4879608;29;20441;-76
2023/01/27 02:31:47;;;;;;;15.40;10.27;;;5.30;99.90;;;;;;4879530;29;20288;-76
2023/01/27 02:34:16;;;;;;;20.73;11.73;;;5.30;99.90;;;;;;4878391;29;20922;-76
2023/01/27 02:36:58;;;;;;;30.40;13.97;;;5.20;99.90;;;;;;4879780;29;20205;-76
2023/01/27 02:39:31;;;;;;;24.43;12.43;;;5.20;99.90;;;;;;4878975;29;20437;-75
2023/01/27 02:41:58;;;;;;;25.03;11.80;;;5.20;99.90;;;;;;4878532;29;20437;-76
2023/01/27 02:44:23;;;;;;;21.90;11.30;;;5.20;99.90;;;;;;4879433;29;20456;-78
2023/01/27 02:46:49;;;;;;;19.67;11.40;;;5.30;99.90;;;;;;4879288;29;20438;-81
2023/01/27 02:49:15;;;;;;;18.40;10.57;;;5.30;99.90;;;;;;4879371;29;20220;-80
2023/01/27 02:51:40;;;;;;;20.50;11.47;;;5.30;99.90;;;;;;4879211;29;20192;-80
2023/01/27 02:54:06;;;;;;;21.27;12.80;;;5.30;99.90;;;;;;4879527;29;20196;-79
2023/01/27 02:56:32;;;;;;;22.00;10.83;;;5.30;99.90;;;;;;4879247;29;20550;-79
2023/01/27 02:58:58;;;;;;;17.03;10.40;;;5.30;99.90;;;;;;4879173;29;20452;-79
2023/01/27 03:01:24;;;;;;;20.53;11.03;;;5.30;99.90;;;;;;4878874;29;20452;-79
2023/01/27 03:03:50;;;;;;;20.00;10.00;;;5.30;99.90;;;;;;4879144;29;20196;-79
2023/01/27 03:06:16;;;;;;;19.00;10.17;;;5.20;99.90;;;;;;4879226;29;20524;-79
2023/01/27 03:08:42;;;;;;;19.03;10.23;;;5.20;99.90;;;;;;4878526;29;20452;-80
2023/01/27 03:11:09;;;;;;;17.73;11.00;;;5.30;99.90;;;;;;4878333;29;20481;-80
2023/01/27 03:13:37;;;;;;;19.67;9.80;;;5.30;99.90;;;;;;4878878;29;20917;-80
2023/01/27 03:18:49;;;;;;;15.33;9.07;;;5.30;99.90;;;;;;4879200;29;20461;-80
2023/01/27 03:21:16;;;;;;;20.63;9.23;;;5.30;99.90;;;;;;4879115;29;20451;-82
2023/01/27 03:23:44;;;;;;;14.57;9.40;;;5.30;99.90;;;;;;4878864;29;20448;-82
2023/01/27 03:26:11;;;;;;;19.73;9.67;;;5.30;99.90;;;;;;4878241;29;20469;-85
2023/01/27 03:28:37;;;;;;;16.90;9.00;;;5.30;99.90;;;;;;4879842;29;20504;-81
2023/01/27 03:31:06;;;;;;;15.47;9.10;;;5.30;99.90;;;;;;4878574;29;20912;-82
2023/01/27 03:33:31;;;;;;;15.33;8.50;;;5.30;99.90;;;;;;4876393;29;20457;-81
2023/01/27 05:32:15;;;;;;;21.77;12.73;;;5.40;99.90;;;;;;5123286;23;21064;-78
2023/01/27 05:34:40;;;;;;;21.27;11.93;;;5.40;99.90;;;;;;4920179;29;20539;-81
2023/01/27 05:37:06;;;;;;;16.77;9.93;;;5.40;99.90;;;;;;4918202;29;20191;-82
2023/01/27 05:39:31;;;;;;;19.03;11.00;;;5.40;99.90;;;;;;4918449;29;20282;-84
2023/01/27 05:41:57;;;;;;;17.97;10.70;;;5.40;99.90;;;;;;4922943;29;20534;-78
2023/01/27 05:44:22;;;;;;;19.17;10.07;;;5.40;99.90;;;;;;4931377;29;20238;-77
2023/01/27 05:46:48;;;;;;;18.73;11.33;;;5.40;99.90;;;;;;4929797;29;20651;-75
2023/01/27 05:49:13;;;;;;;14.20;8.93;;;5.40;99.90;;;;;;4928129;29;20601;-74
2023/01/27 05:51:39;;;;;;;14.13;9.10;;;5.40;99.90;;;;;;4926086;29;20210;-75
2023/01/27 05:54:06;;;;;;;14.13;9.17;;;5.40;99.90;;;;;;4924672;29;20184;-74
2023/01/27 05:56:32;;;;;;;13.70;8.70;;;5.40;99.90;;;;;;4922696;29;20273;-75
2023/01/27 05:58:58;;;;;;;15.53;9.63;;;5.40;99.90;;;;;;4920714;29;21214;-75
2023/01/27 06:01:29;;;;;;;18.07;10.87;;;5.40;99.90;;;;;;4919611;29;20444;-75
2023/01/27 06:03:55;;;;;;;13.87;8.20;;;5.40;99.90;;;;;;4931998;29;20858;-74
2023/01/27 06:06:23;;;;;;;13.57;8.77;;;5.40;99.90;;;;;;4935320;29;20479;-75
2023/01/27 06:08:49;;;;;;;12.30;8.50;;;5.50;99.90;;;;;;4934300;29;20191;-75
2023/01/27 06:11:16;;;;;;;13.47;7.77;;;5.50;99.90;;;;;;4931784;29;20478;-75
2023/01/27 06:13:42;;;;;;;14.77;8.67;;;5.50;99.90;;;;;;4929417;29;20199;-75
2023/01/27 06:16:10;;;;;;;12.63;8.63;;;5.70;99.90;;;;;;4927124;29;20963;-75
2023/01/27 06:18:37;;;;;;;13.30;9.40;;;5.70;99.90;;;;;;4927028;29;20242;-73
2023/01/27 06:21:06;;;;;;;15.23;9.17;;;5.70;99.90;;;;;;4925420;29;20574;-74
2023/01/27 06:23:32;;;;;;;13.37;9.10;;;5.70;99.90;;;;;;4923642;29;20938;-73
2023/01/27 06:26:10;;;;;;;15.33;9.20;;;5.70;99.90;;;;;;4922356;29;20493;-74
2023/01/27 06:28:36;;;;;;;14.67;8.77;;;5.70;99.90;;;;;;4929366;29;20182;-74
2023/01/27 06:31:13;;;;;;;10.77;8.27;;;5.60;99.90;;;;;;4932939;29;20505;-74
2023/01/27 06:33:39;;;;;;;15.70;8.50;;;5.60;99.90;;;;;;4933724;29;20442;-74
2023/01/27 06:36:08;;;;;;;16.77;9.90;;;5.60;99.90;;;;;;4932238;29;20455;-74
2023/01/27 06:38:34;;;;;;;12.73;8.83;;;5.70;99.90;;;;;;4930282;29;20562;-73
2023/01/27 06:41:00;;;;;;;13.67;8.80;;;5.70;99.90;;;;;;4928717;29;20450;-74
2023/01/27 06:43:26;;;;;;;15.60;9.70;;;5.70;99.90;;;;;;4928061;29;20439;-74
2023/01/27 06:45:52;;;;;;;14.07;8.93;;;5.70;99.90;;;;;;4926709;29;20953;-74
2023/01/27 06:48:18;;;;;;;14.10;8.80;;;5.80;99.90;;;;;;4925385;29;20565;-74
2023/01/27 06:50:43;;;;;;;11.20;8.10;;;5.70;99.90;;;;;;4923288;29;20483;-74
2023/01/27 06:53:09;;;;;;;13.43;8.07;;;5.80;99.90;;;;;;4921968;29;20431;-73
2023/01/27 06:55:40;;;;;;;13.77;8.33;;;5.70;99.90;;;;;;4920320;29;20287;-74
2023/01/27 06:58:15;;;;;;;10.87;7.30;;;5.80;99.90;;;;;;4934318;29;20175;-74
2023/01/27 07:00:41;;;;;;;9.40;6.83;;;5.80;99.90;;;;;;4935241;29;20441;-74
2023/01/27 07:03:10;;;;;;;12.67;7.10;;;5.70;99.90;;;;;;4933811;29;20949;-74
2023/01/27 07:05:37;;;;;;;10.80;7.60;;;5.70;99.90;;;;;;4932031;29;20815;-73
2023/01/27 07:08:03;;;;;;;12.40;7.30;;;5.80;99.90;;;;;;4930581;29;20854;-74
2023/01/27 07:10:28;;;;;;;13.13;7.47;;;5.80;99.90;;;;;;4928517;29;20574;-74
2023/01/27 07:13:03;;;;;;;10.37;7.70;;;5.80;99.90;;;;;;4926701;29;20603;-74
2023/01/27 07:15:31;;;;;;;9.57;6.70;;;5.70;99.90;;;;;;4925014;29;20186;-74
2023/01/27 07:18:00;;;;;;;10.77;6.97;;;5.70;99.90;;;;;;4928934;29;20497;-74
2023/01/27 07:20:29;;;;;;;11.27;7.97;;;5.80;99.90;;;;;;4930568;29;20522;-73
2023/01/27 07:23:02;;;;;;;13.20;7.70;;;5.80;99.90;;;;;;4919847;29;20534;-73
2023/01/27 07:25:29;;;;;;;10.57;7.53;;;5.80;99.90;;;;;;4917907;29;20436;-73
2023/01/27 07:27:59;;;;;;;10.07;6.70;;;5.80;99.90;;;;;;4917196;29;20454;-73
2023/01/27 07:30:25;;;;;;;10.30;7.27;;;5.70;99.90;;;;;;4918449;29;20473;-74
2023/01/27 07:32:53;;;;;;;8.80;6.83;;;5.70;99.90;;;;;;4920156;29;20443;-74
2023/01/27 07:35:18;;;;;;;11.03;7.30;;;5.80;99.90;;;;;;4916185;29;20431;-74
2023/01/27 07:37:44;;;;;;;12.77;8.37;;;5.80;99.90;;;;;;4923467;29;20705;-74
2023/01/27 07:40:12;;;;;;;11.13;8.07;;;5.80;99.90;;;;;;4925308;29;20207;-74
2023/01/27 07:42:38;;;;;;;10.73;8.33;;;5.90;99.90;;;;;;4927106;29;20319;-74
2023/01/27 07:45:04;;;;;;;13.10;8.40;;;5.90;99.90;;;;;;4928646;29;21461;-74
2023/01/27 07:47:29;;;;;;;12.53;7.37;;;5.90;99.90;;;;;;4930398;29;20431;-74
2023/01/27 07:49:55;;;;;;;12.80;9.30;;;5.90;99.90;;;;;;4931610;29;20474;-73
2023/01/27 07:52:21;;;;;;;12.90;9.43;;;5.90;99.90;;;;;;4933663;29;20207;-73
2023/01/27 07:54:46;;;;;;;11.13;8.40;;;5.90;99.90;;;;;;4938256;29;20997;-73
2023/01/27 07:57:12;;;;;;;10.93;8.70;;;5.90;99.90;;;;;;4937384;29;20669;-73
2023/01/27 07:59:37;;;;;;;10.67;8.20;;;5.90;99.90;;;;;;4935561;29;20253;-73
2023/01/27 08:02:03;;;;;;;12.13;8.77;;;5.90;99.90;;;;;;4933728;29;20186;-74
2023/01/27 08:04:28;;;;;;;11.77;7.87;;;5.90;99.90;;;;;;4931980;29;20202;-75
2023/01/27 08:06:54;;;;;;;11.37;8.10;;;5.90;99.90;;;;;;4930465;29;20219;-74
2023/01/27 08:09:19;;;;;;;8.60;6.60;;;5.90;99.90;;;;;;4928780;29;20220;-74
2023/01/27 08:11:45;;;;;;;11.87;7.83;;;6.00;99.90;;;;;;4926824;29;20220;-74
2023/01/27 08:14:10;;;;;;;10.07;7.40;;;6.00;99.90;;;;;;4925341;29;20227;-74
2023/01/27 08:16:36;;;;;;;10.40;7.97;;;5.90;99.90;;;;;;4923454;29;20199;-74
2023/01/27 08:19:02;;;;;;;11.03;7.60;;;5.90;99.90;;;;;;4921582;29;20326;-74
2023/01/27 08:21:31;;;;;;;13.73;8.20;;;6.00;99.90;;;;;;4919888;29;20188;-74
2023/01/27 08:23:58;;;;;;;11.60;8.73;;;6.00;99.90;;;;;;4921073;29;20204;-74
2023/01/27 08:26:23;;;;;;;10.50;8.33;;;6.00;99.90;;;;;;4922460;29;20453;-74
2023/01/27 08:28:50;;;;;;;10.53;7.03;;;6.00;99.90;;;;;;4924199;29;20431;-74
2023/01/27 08:31:16;;;;;;;10.40;8.07;;;6.00;99.90;;;;;;4925449;29;20274;-73
2023/01/27 08:33:49;;;;;;;12.27;7.83;;;6.00;99.90;;;;;;4927246;29;20430;-73
2023/01/27 08:36:17;;;;;;;10.33;7.03;;;6.00;99.90;;;;;;4928244;29;20447;-74
2023/01/27 08:38:43;;;;;;;10.30;7.57;;;6.00;99.90;;;;;;4925728;29;20427;-74
2023/01/27 08:41:15;;;;;;;13.30;8.73;;;6.00;99.90;;;;;;4924507;29;20449;-73
2023/01/27 08:43:47;;;;;;;9.90;7.90;;;6.00;99.90;;;;;;4922595;29;20522;-73
2023/01/27 08:46:13;;;;;;;10.10;7.17;;;6.10;99.90;;;;;;4920478;29;20977;-74
2023/01/27 08:48:39;;;;;;;8.77;6.93;;;6.00;99.90;;;;;;4919025;29;20432;-73
2023/01/27 08:51:06;;;;;;;12.20;8.63;;;6.00;99.90;;;;;;4919721;29;20507;-73
2023/01/27 08:53:33;;;;;;;9.00;6.67;;;6.10;99.90;;;;;;4920971;29;20438;-73
2023/01/27 08:56:03;;;;;;;8.23;6.80;;;6.10;99.90;;;;;;4922912;29;20451;-74
2023/01/27 08:58:29;;;;;;;13.13;8.37;;;6.10;99.90;;;;;;4924402;29;20426;-73
2023/01/27 09:00:57;;;;;;;17.60;8.80;;;6.10;99.90;;;;;;4912234;29;20515;-74
2023/01/27 09:03:24;;;;;;;9.20;7.10;;;6.10;99.90;;;;;;4927248;29;20199;-74
2023/01/27 09:05:50;;;;;;;11.37;7.40;;;6.10;99.90;;;;;;4924377;29;20434;-73
2023/01/27 09:08:15;;;;;;;14.10;8.10;;;6.20;99.90;;;;;;4923868;29;20439;-73
2023/01/27 09:10:41;;;;;;;11.60;7.57;;;6.20;99.90;;;;;;4921987;29;20211;-73
2023/01/27 09:13:07;;;;;;;7.97;6.40;;;6.20;99.90;;;;;;4920505;29;20183;-73
2023/01/27 09:15:35;;;;;;;9.93;7.20;;;6.20;99.90;;;;;;4918834;29;20203;-73
2023/01/27 09:18:01;;;;;;;9.03;6.60;;;6.20;99.90;;;;;;4918853;29;20455;-74
2023/01/27 09:20:26;;;;;;;9.70;6.60;;;6.20;99.90;;;;;;4920667;29;20494;-74
2023/01/27 09:22:54;;;;;;;9.13;5.93;;;6.30;99.90;;;;;;4917320;29;20439;-74
2023/01/27 09:25:20;;;;;;;9.07;6.70;;;6.30;99.90;;;;;;4923733;29;20580;-74
2023/01/27 09:27:46;;;;;;;9.60;6.73;;;6.30;99.90;;;;;;4925474;29;20440;-74
2023/01/27 09:30:14;;;;;;;10.53;6.67;;;6.30;99.90;;;;;;4909893;29;21008;-75
2023/01/27 09:32:41;;;;;;;11.90;7.20;;;6.30;99.90;;;;;;4928000;29;20333;-74
2023/01/27 09:35:07;;;;;;;10.53;7.07;;;6.30;99.90;;;;;;4930261;29;20434;-74
2023/01/27 09:37:38;;;;;;;9.60;6.30;;;6.30;99.90;;;;;;4922281;29;20560;-73
2023/01/27 09:40:16;;;;;;;8.63;6.83;;;6.30;99.90;;;;;;4920529;29;20455;-74
2023/01/27 09:43:12;;;;;;;9.47;7.30;;;6.20;99.90;;;;;;4918243;29;20810;-73
2023/01/27 09:46:00;;;;;;;11.87;7.23;;;6.20;99.90;;;;;;4935693;29;20451;-73
2023/01/27 09:48:52;;;;;;;10.50;7.30;;;6.30;99.90;;;;;;4920564;29;20432;-73
2023/01/27 09:51:43;;;;;;;19.87;8.13;;;6.30;99.90;;;;;;4929569;29;20487;-73
2023/01/27 09:54:57;;;;;;;9.27;7.10;;;6.30;99.90;;;;;;4912726;29;20810;-73
2023/01/27 09:57:43;;;;;;;9.73;7.30;;;6.30;99.90;;;;;;4864957;29;20450;-73
2023/01/27 10:00:43;;;;;;;11.30;7.50;;;6.30;99.90;;;;;;4925643;29;20443;-73
2023/01/27 10:03:12;;;;;;;11.00;6.30;;;6.30;99.90;;;;;;4884833;29;20480;-73
2023/01/27 10:05:47;;;;;;;11.13;7.80;;;6.30;99.90;;;;;;4921611;29;20800;-73
2023/01/27 10:08:18;;;;;;;10.57;7.30;;;6.30;99.90;;;;;;4919774;29;20424;-73
2023/01/27 10:10:50;;;;;;;9.23;7.60;;;6.30;99.90;;;;;;4918105;29;20479;-73
2023/01/27 10:13:31;;;;;;;11.17;8.60;;;6.20;99.90;;;;;;4931689;29;20518;-74
2023/01/27 10:16:19;;;;;;;10.97;8.33;;;6.30;99.90;;;;;;4933014;29;20428;-73
2023/01/27 10:19:09;;;;;;;10.87;8.70;;;6.30;99.90;;;;;;4931309;29;20522;-73
2023/01/27 10:21:49;;;;;;;13.37;11.30;;;6.30;99.90;;;;;;4924353;29;21000;-73
2023/01/27 10:24:47;;;;;;;10.07;7.77;;;6.30;99.90;;;;;;4927326;29;20764;-73
2023/01/27 10:27:20;;;;;;;12.20;8.30;;;6.30;99.90;;;;;;4925442;29;20442;-73
2023/01/27 10:29:56;;;;;;;12.90;8.47;;;6.30;99.90;;;;;;4929892;29;20821;-73
2023/01/27 10:32:26;;;;;;;12.43;9.33;;;6.30;99.90;;;;;;4921510;29;20487;-73
2023/01/27 10:35:14;;;;;;;10.97;7.10;;;6.40;99.90;;;;;;4919775;29;20811;-74
2023/01/27 10:37:49;;;;;;;11.00;7.53;;;6.30;99.90;;;;;;4933483;29;20435;-74
2023/01/27 10:40:42;;;;;;;11.10;6.90;;;6.30;99.90;;;;;;4924763;29;20938;-74
2023/01/27 10:43:22;;;;;;;11.83;7.80;;;6.40;99.90;;;;;;4933388;29;20529;-73
2023/01/27 10:46:10;;;;;;;10.40;7.23;;;6.30;99.90;;;;;;4922040;29;20435;-73
2023/01/27 10:48:51;;;;;;;9.67;7.27;;;6.30;99.90;;;;;;4915891;29;20440;-73
2023/01/27 10:51:35;;;;;;;10.67;7.33;;;6.30;99.90;;;;;;4907248;29;21181;-73
2023/01/27 10:54:12;;;;;;;16.10;6.80;;;6.40;99.90;;;;;;4928007;29;20550;-73
2023/01/27 10:56:47;;;;;;;11.60;7.63;;;6.40;99.90;;;;;;4923345;29;20444;-74
2023/01/27 10:59:24;;;;;;;10.50;6.63;;;6.40;99.90;;;;;;4921589;29;21108;-74
2023/01/27 11:01:59;;;;;;;8.93;7.40;;;6.40;99.90;;;;;;4919841;29;20431;-74
2023/01/27 11:04:40;;;;;;;11.00;7.30;;;6.40;99.90;;;;;;4917908;29;20434;-74
2023/01/27 11:07:05;;;;;;;10.73;7.93;;;6.40;99.90;;;;;;4932152;29;20438;-74
2023/01/27 11:09:47;;;;;;;8.37;6.93;;;6.40;99.90;;;;;;4933403;29;20956;-74
2023/01/27 11:12:14;;;;;;;9.50;7.13;;;6.40;99.90;;;;;;4931407;29;20222;-74
2023/01/27 11:14:47;;;;;;;11.53;6.53;;;6.40;99.90;;;;;;4929500;29;20430;-74
2023/01/27 11:17:28;;;;;;;9.27;7.43;;;6.40;99.90;;;;;;4924412;29;20439;-74
2023/01/27 11:20:19;;;;;;;9.57;6.70;;;6.50;99.90;;;;;;4925760;29;20495;-74
2023/01/27 11:22:51;;;;;;;10.07;7.70;;;6.50;99.90;;;;;;4926262;29;20513;-74
2023/01/27 11:25:25;;;;;;;9.30;5.97;;;6.50;99.90;;;;;;4929805;29;20428;-74
2023/01/27 11:28:16;;;;;;;10.67;7.50;;;6.50;99.90;;;;;;4930898;29;20430;-74
2023/01/27 11:30:49;;;;;;;8.80;7.20;;;6.50;99.90;;;;;;4918101;29;20527;-74
2023/01/27 11:33:26;;;;;;;10.33;6.87;;;6.50;99.90;;;;;;4935235;29;20449;-74
2023/01/27 11:35:53;;;;;;;7.50;5.73;;;6.50;99.90;;;;;;4934005;29;20439;-74
2023/01/27 11:38:20;;;;;;;8.10;6.93;;;6.50;99.90;;;;;;4931682;29;20440;-73
2023/01/27 11:40:50;;;;;;;11.93;6.63;;;6.60;99.90;;;;;;4930003;29;20538;-73
2023/01/27 11:43:19;;;;;;;19.33;10.37;;;6.60;99.90;;;;;;4928330;29;20438;-73
2023/01/27 11:45:47;;;;;;;11.03;7.97;;;6.60;99.90;;;;;;4926424;29;20434;-74
2023/01/27 11:48:16;;;;;;;9.50;7.17;;;6.60;99.90;;;;;;4925802;29;20435;-74
2023/01/27 11:50:43;;;;;;;10.70;6.63;;;6.60;99.90;;;;;;4928063;29;20474;-77
2023/01/27 11:53:15;;;;;;;7.63;6.43;;;6.70;99.90;;;;;;4930143;29;20446;-74
2023/01/27 11:55:49;;;;;;;13.20;7.03;;;6.70;99.90;;;;;;4931592;29;20423;-75
2023/01/27 11:58:19;;;;;;;7.07;5.67;;;6.70;99.90;;;;;;4933666;29;20439;-75
2023/01/27 12:01:16;;;;;;;5.93;4.90;;;6.70;99.90;;;;;;4934677;29;20427;-74
2023/01/27 12:03:53;;;;;;;8.50;5.47;;;6.70;99.90;;;;;;4921791;29;20819;-74
2023/01/27 12:06:58;;;;;;;8.90;5.53;;;6.70;99.90;;;;;;4931392;29;20439;-73
2023/01/27 12:09:33;;;;;;;6.00;4.30;;;6.70;99.90;;;;;;4889290;29;20934;-74
2023/01/27 12:12:14;;;;;;;5.17;4.73;;;6.70;99.90;;;;;;4923485;29;20475;-73
2023/01/27 12:14:57;;;;;;;4.07;3.40;;;6.70;99.90;;;;;;4925522;29;20430;-74
2023/01/27 12:17:41;;;;;;;8.17;4.83;;;6.70;99.90;;;;;;4927706;29;20819;-74
2023/01/27 12:20:27;;;;;;;4.83;3.97;;;6.70;99.90;;;;;;4921586;29;21061;-74
2023/01/27 12:22:55;;;;;;;4.10;3.60;;;6.70;99.90;;;;;;4930329;29;20442;-74
2023/01/27 12:25:26;;;;;;;4.83;4.13;;;6.70;99.90;;;;;;4933033;29;20501;-74
2023/01/27 12:27:56;;;;;;;3.97;3.60;;;6.70;99.90;;;;;;4934611;29;20927;-74
2023/01/27 12:30:28;;;;;;;4.07;3.67;;;6.70;99.90;;;;;;4917488;29;20467;-74
2023/01/27 12:32:55;;;;;;;3.53;3.23;;;6.70;99.90;;;;;;4919696;29;20487;-74
2023/01/27 12:35:29;;;;;;;4.30;3.73;;;6.70;99.90;;;;;;4920948;29;20477;-74
2023/01/27 12:38:05;;;;;;;3.33;3.03;;;6.70;99.90;;;;;;4927849;29;20958;-74
2023/01/27 12:40:32;;;;;;;4.10;3.70;;;6.70;99.90;;;;;;4927224;29;20526;-74
2023/01/27 12:43:00;;;;;;;5.57;3.87;;;6.70;99.90;;;;;;4929631;29;20446;-73
2023/01/27 12:45:34;;;;;;;4.23;3.83;;;6.70;99.90;;;;;;4931018;29;20934;-74
2023/01/27 12:48:11;;;;;;;7.17;3.30;;;6.70;99.90;;;;;;4907195;29;20467;-73
2023/01/27 12:50:51;;;;;;;4.63;3.60;;;6.70;99.90;;;;;;4922200;29;20471;-73
2023/01/27 12:53:22;;;;;;;3.97;3.67;;;6.70;99.90;;;;;;4934760;29;20529;-73
2023/01/27 12:56:09;;;;;;;3.77;3.40;;;6.70;99.90;;;;;;4937457;29;20423;-73
2023/01/27 12:58:40;;;;;;;3.83;3.40;;;6.80;99.90;;;;;;4935768;29;20917;-73
2023/01/27 13:01:26;;;;;;;3.60;3.27;;;6.80;99.90;;;;;;4934122;29;20437;-73
2023/01/27 13:03:56;;;;;;;3.83;3.00;;;6.80;99.90;;;;;;4932114;29;20434;-73
2023/01/27 13:06:32;;;;;;;3.77;3.37;;;6.80;99.90;;;;;;4930546;29;20444;-73
2023/01/27 13:09:00;;;;;;;3.80;3.10;;;6.70;99.90;;;;;;4928240;29;20433;-73
2023/01/27 13:11:36;;;;;;;5.10;2.93;;;6.70;99.90;;;;;;4926479;29;20569;-72
2023/01/27 13:14:01;;;;;;;4.50;3.73;;;6.80;99.90;;;;;;4931661;29;20806;-73
2023/01/27 13:16:29;;;;;;;5.50;3.67;;;6.70;99.90;;;;;;4922903;29;20440;-73
2023/01/27 13:18:57;;;;;;;4.70;4.30;;;6.70;99.90;;;;;;4921251;29;20180;-73
2023/01/27 13:21:36;;;;;;;5.17;4.67;;;6.80;99.90;;;;;;4919358;29;20939;-73
2023/01/27 13:24:11;;;;;;;4.70;4.23;;;6.80;99.90;;;;;;4919352;29;20446;-73
2023/01/27 13:26:39;;;;;;;10.37;4.90;;;6.80;99.90;;;;;;4921025;29;20471;-72
2023/01/27 13:29:08;;;;;;;6.07;5.40;;;6.70;99.90;;;;;;4927214;29;20435;-73
2023/01/27 13:32:15;;;;;;;5.53;5.00;;;6.70;99.90;;;;;;4930389;29;20521;-73
2023/01/27 13:34:47;;;;;;;5.43;4.93;;;6.70;99.90;;;;;;4918689;29;21114;-73
2023/01/27 13:37:36;;;;;;;5.53;5.03;;;6.60;99.90;;;;;;4928592;29;20518;-73
2023/01/27 13:40:27;;;;;;;7.33;5.13;;;6.60;99.90;;;;;;4925221;29;21017;-73
2023/01/27 13:43:22;;;;;;;6.23;5.63;;;6.50;99.90;;;;;;4931436;29;20539;-72
2023/01/27 13:45:56;;;;;;;5.33;4.77;;;6.50;99.90;;;;;;4933891;29;20489;-73
2023/01/27 13:48:26;;;;;;;7.60;6.83;;;6.50;99.90;;;;;;4919318;29;20444;-73
2023/01/27 13:51:14;;;;;;;6.10;5.50;;;6.50;99.90;;;;;;4918110;29;20483;-73
2023/01/27 13:53:40;;;;;;;5.07;4.67;;;6.60;99.90;;;;;;4931319;29;20434;-73
2023/01/27 13:56:43;;;;;;;5.27;4.77;;;6.50;99.90;;;;;;4932682;29;20933;-73
2023/01/27 13:59:18;;;;;;;5.80;4.70;;;6.50;99.90;;;;;;4924272;29;20486;-73
2023/01/27 14:02:28;;;;;;;5.00;4.50;;;6.60;99.90;;;;;;4928703;29;20433;-72
2023/01/27 14:05:03;;;;;;;4.43;4.03;;;6.50;99.90;;;;;;4928076;29;20493;-72
2023/01/27 14:07:50;;;;;;;7.63;4.67;;;6.40;99.90;;;;;;4924411;29;20442;-73
2023/01/27 14:10:33;;;;;;;7.13;4.63;;;6.50;99.90;;;;;;4922688;29;20518;-73
2023/01/27 14:13:17;;;;;;;4.70;4.20;;;6.50;99.90;;;;;;4916591;29;20529;-73
2023/01/27 14:15:53;;;;;;;5.83;4.13;;;6.50;99.90;;;;;;4918938;29;20439;-73
2023/01/27 14:18:48;;;;;;;2.90;2.70;;;6.50;99.90;;;;;;4932055;29;20434;-74
2023/01/27 14:21:33;;;;;;;4.67;4.00;;;6.50;99.90;;;;;;4918113;29;20543;-74
2023/01/27 14:24:34;;;;;;;4.03;3.73;;;6.50;99.90;;;;;;4913768;29;20468;-74
2023/01/27 14:27:33;;;;;;;3.90;3.00;;;6.50;99.90;;;;;;4928931;29;20843;-74
2023/01/27 14:30:01;;;;;;;3.03;2.83;;;6.50;99.90;;;;;;4926321;29;20470;-73
2023/01/27 14:32:33;;;;;;;4.73;3.20;;;6.50;99.90;;;;;;4924696;29;20534;-74
2023/01/27 14:35:15;;;;;;;5.10;2.93;;;6.50;99.90;;;;;;4922522;29;20432;-75
2023/01/27 14:37:51;;;;;;;7.20;3.13;;;6.50;99.90;;;;;;4929352;29;20450;-75
2023/01/27 14:40:40;;;;;;;3.43;2.50;;;6.50;99.90;;;;;;4919318;29;20530;-76
2023/01/27 14:43:05;;;;;;;4.30;3.50;;;6.50;99.90;;;;;;4912600;29;20446;-75
2023/01/27 14:45:41;;;;;;;4.97;3.43;;;6.50;99.90;;;;;;4916765;29;20428;-77
2023/01/27 14:48:22;;;;;;;4.43;3.90;;;6.60;99.90;;;;;;4918377;29;20665;-76
2023/01/27 14:51:20;;;;;;;5.93;3.40;;;6.50;99.90;;;;;;4920269;29;20487;-74
2023/01/27 14:53:55;;;;;;;3.20;2.90;;;6.50;99.90;;;;;;4922248;29;20757;-75
2023/01/27 14:56:47;;;;;;;2.90;2.60;;;6.50;99.90;;;;;;4928411;29;20478;-75
2023/01/27 14:59:32;;;;;;;3.67;2.20;;;6.60;99.90;;;;;;4928992;29;20509;-74
2023/01/27 15:02:31;;;;;;;3.10;2.80;;;6.60;99.90;;;;;;4927666;29;20427;-74
2023/01/27 15:05:25;;;;;;;3.40;3.10;;;6.60;99.90;;;;;;4920410;29;20432;-74
2023/01/27 15:08:02;;;;;;;2.90;2.70;;;6.50;99.90;;;;;;4918159;29;20797;-74
2023/01/27 15:10:29;;;;;;;3.40;3.10;;;6.50;99.90;;;;;;4917697;29;20554;-74
2023/01/27 15:13:16;;;;;;;4.23;3.23;;;6.50;99.90;;;;;;4930981;29;20217;-75
2023/01/27 15:15:53;;;;;;;3.90;2.70;;;6.60;99.90;;;;;;4906185;29;20521;-76
2023/01/27 15:18:29;;;;;;;4.30;3.60;;;6.60;99.90;;;;;;4931337;29;20447;-75
2023/01/27 15:21:08;;;;;;;5.77;3.73;;;6.70;99.90;;;;;;4931461;29;20895;-75
2023/01/27 15:23:41;;;;;;;5.40;3.60;;;6.70;99.90;;;;;;4930962;29;20443;-76